sensor_id;sensor_type;location;lat;lon;timestamp;temperature;humidity
292;DHT22;23311;48.776;9.162;2023-06-01T00:01:03;15.60;81.20
292;DHT22;23311;48.776;9.162;2023-06-01T00:03:31;15.60;81.60
292;DHT22;23311;48.776;9.162;2023-06-01T00:05:59;15.60;81.40
292;DHT22;23311;48.776;9.162;2023-06-01T00:08:27;15.70;81.00
292;DHT22;23311;48.776;9.162;2023-06-01T00:10:56;15.70;81.00
292;DHT22;23311;48.776;9.162;2023-06-01T00:13:26;15.60;81.10
292;DHT22;23311;48.776;9.162;2023-06-01T00:15:54;15.60;81.10
292;DHT22;23311;48.776;9.162;2023-06-01T00:18:23;15.60;81.00
292;DHT22;23311;48.776;9.162;2023-06-01T00:20:53;15.40;81.50
292;DHT22;23311;48.776;9.162;2023-06-01T00:23:21;15.30;82.10
292;DHT22;23311;48.776;9.162;2023-06-01T00:25:49;15.30;83.10
292;DHT22;23311;48.776;9.162;2023-06-01T00:28:19;15.30;84.40
292;DHT22;23311;48.776;9.162;2023-06-01T00:30:47;15.20;84.70
292;DHT22;23311;48.776;9.162;2023-06-01T00:33:15;15.30;84.70
292;DHT22;23311;48.776;9.162;2023-06-01T00:35:43;15.30;84.70
292;DHT22;23311;48.776;9.162;2023-06-01T00:38:11;15.30;84.20
292;DHT22;23311;48.776;9.162;2023-06-01T00:40:39;15.20;84.50
292;DHT22;23311;48.776;9.162;2023-06-01T00:43:07;15.20;84.40
292;DHT22;23311;48.776;9.162;2023-06-01T00:45:37;15.10;84.80
292;DHT22;23311;48.776;9.162;2023-06-01T00:48:05;15.00;85.10
292;DHT22;23311;48.776;9.162;2023-06-01T00:50:34;15.00;85.40
292;DHT22;23311;48.776;9.162;2023-06-01T00:53:04;15.00;85.40
292;DHT22;23311;48.776;9.162;2023-06-01T00:55:34;15.10;85.40
292;DHT22;23311;48.776;9.162;2023-06-01T00:58:02;15.10;84.90
292;DHT22;23311;48.776;9.162;2023-06-01T01:00:30;15.10;84.70
292;DHT22;23311;48.776;9.162;2023-06-01T01:03:00;15.00;84.60
292;DHT22;23311;48.776;9.162;2023-06-01T01:05:36;15.00;84.70
292;DHT22;23311;48.776;9.162;2023-06-01T01:08:09;15.00;84.80
292;DHT22;23311;48.776;9.162;2023-06-01T01:10:43;14.90;84.70
292;DHT22;23311;48.776;9.162;2023-06-01T01:13:19;14.80;84.60
292;DHT22;23311;48.776;9.162;2023-06-01T01:15:56;14.70;84.90
292;DHT22;23311;48.776;9.162;2023-06-01T01:18:32;14.60;84.80
292;DHT22;23311;48.776;9.162;2023-06-01T01:21:03;14.70;84.80
292;DHT22;23311;48.776;9.162;2023-06-01T01:24:02;14.90;84.00
292;DHT22;23311;48.776;9.162;2023-06-01T01:26:52;15.10;83.80
292;DHT22;23311;48.776;9.162;2023-06-01T01:29:24;14.90;84.00
292;DHT22;23311;48.776;9.162;2023-06-01T01:31:55;15.10;83.60
292;DHT22;23311;48.776;9.162;2023-06-01T01:34:25;15.00;83.60
292;DHT22;23311;48.776;9.162;2023-06-01T01:36:55;14.90;84.10
292;DHT22;23311;48.776;9.162;2023-06-01T01:39:23;14.80;84.20
292;DHT22;23311;48.776;9.162;2023-06-01T01:41:51;14.90;83.90
292;DHT22;23311;48.776;9.162;2023-06-01T01:44:19;14.70;84.40
292;DHT22;23311;48.776;9.162;2023-06-01T01:46:53;14.60;85.20
292;DHT22;23311;48.776;9.162;2023-06-01T01:49:28;14.50;85.30
292;DHT22;23311;48.776;9.162;2023-06-01T01:52:04;14.70;85.30
292;DHT22;23311;48.776;9.162;2023-06-01T01:54:37;14.60;85.20
292;DHT22;23311;48.776;9.162;2023-06-01T01:57:05;14.70;85.00
292;DHT22;23311;48.776;9.162;2023-06-01T01:59:36;14.60;85.30
292;DHT22;23311;48.776;9.162;2023-06-01T02:02:06;14.40;85.80
292;DHT22;23311;48.776;9.162;2023-06-01T02:04:38;14.20;86.10
292;DHT22;23311;48.776;9.162;2023-06-01T02:07:09;14.20;86.60
292;DHT22;23311;48.776;9.162;2023-06-01T02:09:38;14.20;87.00
292;DHT22;23311;48.776;9.162;2023-06-01T02:12:07;14.10;87.30
292;DHT22;23311;48.776;9.162;2023-06-01T02:14:35;14.10;87.40
292;DHT22;23311;48.776;9.162;2023-06-01T02:17:03;14.00;87.70
292;DHT22;23311;48.776;9.162;2023-06-01T02:19:33;13.90;88.00
292;DHT22;23311;48.776;9.162;2023-06-01T02:22:01;13.90;87.80
292;DHT22;23311;48.776;9.162;2023-06-01T02:24:30;13.80;88.20
292;DHT22;23311;48.776;9.162;2023-06-01T02:26:58;13.80;88.10
292;DHT22;23311;48.776;9.162;2023-06-01T02:29:26;13.60;88.30
292;DHT22;23311;48.776;9.162;2023-06-01T02:31:54;13.50;88.90
292;DHT22;23311;48.776;9.162;2023-06-01T02:34:22;13.50;89.30
292;DHT22;23311;48.776;9.162;2023-06-01T02:36:52;13.50;89.50
292;DHT22;23311;48.776;9.162;2023-06-01T02:39:22;13.50;89.50
292;DHT22;23311;48.776;9.162;2023-06-01T02:41:50;13.50;89.60
292;DHT22;23311;48.776;9.162;2023-06-01T02:44:18;13.60;89.70
292;DHT22;23311;48.776;9.162;2023-06-01T02:46:46;13.70;89.60
292;DHT22;23311;48.776;9.162;2023-06-01T02:49:14;13.80;89.40
292;DHT22;23311;48.776;9.162;2023-06-01T02:51:42;13.80;89.50
292;DHT22;23311;48.776;9.162;2023-06-01T02:54:12;13.80;89.80
292;DHT22;23311;48.776;9.162;2023-06-01T02:56:40;13.80;90.10
292;DHT22;23311;48.776;9.162;2023-06-01T02:59:08;13.80;90.50
292;DHT22;23311;48.776;9.162;2023-06-01T03:01:36;13.80;90.30
292;DHT22;23311;48.776;9.162;2023-06-01T03:04:04;13.80;90.30
292;DHT22;23311;48.776;9.162;2023-06-01T03:06:32;13.70;90.40
292;DHT22;23311;48.776;9.162;2023-06-01T03:09:04;13.60;90.60
292;DHT22;23311;48.776;9.162;2023-06-01T03:11:34;13.60;90.70
292;DHT22;23311;48.776;9.162;2023-06-01T03:14:02;13.50;90.90
292;DHT22;23311;48.776;9.162;2023-06-01T03:16:30;13.40;91.10
292;DHT22;23311;48.776;9.162;2023-06-01T03:18:58;13.40;91.20
292;DHT22;23311;48.776;9.162;2023-06-01T03:21:26;13.40;91.10
292;DHT22;23311;48.776;9.162;2023-06-01T03:23:54;13.40;91.10
292;DHT22;23311;48.776;9.162;2023-06-01T03:26:23;13.40;90.90
292;DHT22;23311;48.776;9.162;2023-06-01T03:28:52;13.30;91.40
292;DHT22;23311;48.776;9.162;2023-06-01T03:31:21;13.40;91.70
292;DHT22;23311;48.776;9.162;2023-06-01T03:33:50;13.50;91.60
292;DHT22;23311;48.776;9.162;2023-06-01T03:36:19;13.50;91.70
292;DHT22;23311;48.776;9.162;2023-06-01T03:38:47;13.50;91.80
292;DHT22;23311;48.776;9.162;2023-06-01T03:41:15;13.40;92.00
292;DHT22;23311;48.776;9.162;2023-06-01T03:43:43;13.30;92.20
292;DHT22;23311;48.776;9.162;2023-06-01T03:46:12;13.40;92.00
292;DHT22;23311;48.776;9.162;2023-06-01T03:48:40;13.50;91.60
292;DHT22;23311;48.776;9.162;2023-06-01T03:51:08;13.50;91.50
292;DHT22;23311;48.776;9.162;2023-06-01T03:53:37;13.50;91.50
292;DHT22;23311;48.776;9.162;2023-06-01T03:56:06;13.50;91.50
292;DHT22;23311;48.776;9.162;2023-06-01T03:58:37;13.60;91.30
292;DHT22;23311;48.776;9.162;2023-06-01T04:01:05;13.70;90.70
292;DHT22;23311;48.776;9.162;2023-06-01T04:03:38;13.70;90.90
292;DHT22;23311;48.776;9.162;2023-06-01T04:06:07;14.10;90.90
292;DHT22;23311;48.776;9.162;2023-06-01T04:08:39;14.70;89.80
292;DHT22;23311;48.776;9.162;2023-06-01T04:11:14;15.40;87.70
292;DHT22;23311;48.776;9.162;2023-06-01T04:13:43;16.10;85.40
292;DHT22;23311;48.776;9.162;2023-06-01T04:16:11;16.50;83.90
292;DHT22;23311;48.776;9.162;2023-06-01T04:18:41;16.80;83.40
292;DHT22;23311;48.776;9.162;2023-06-01T04:21:12;17.40;81.50
292;DHT22;23311;48.776;9.162;2023-06-01T04:23:40;17.80;80.10
292;DHT22;23311;48.776;9.162;2023-06-01T04:26:09;18.10;79.20
292;DHT22;23311;48.776;9.162;2023-06-01T04:28:37;18.40;78.50
292;DHT22;23311;48.776;9.162;2023-06-01T04:31:10;18.90;77.30
292;DHT22;23311;48.776;9.162;2023-06-01T04:33:45;19.40;75.40
292;DHT22;23311;48.776;9.162;2023-06-01T04:36:20;19.70;74.90
292;DHT22;23311;48.776;9.162;2023-06-01T04:38:49;19.90;74.10
292;DHT22;23311;48.776;9.162;2023-06-01T04:41:21;19.50;74.50
292;DHT22;23311;48.776;9.162;2023-06-01T04:43:49;19.20;75.20
292;DHT22;23311;48.776;9.162;2023-06-01T04:46:20;18.80;76.20
292;DHT22;23311;48.776;9.162;2023-06-01T04:48:52;18.40;77.20
292;DHT22;23311;48.776;9.162;2023-06-01T04:51:22;18.00;77.90
292;DHT22;23311;48.776;9.162;2023-06-01T04:53:51;17.60;78.80
292;DHT22;23311;48.776;9.162;2023-06-01T04:56:21;17.50;79.70
292;DHT22;23311;48.776;9.162;2023-06-01T04:58:52;17.80;79.20
292;DHT22;23311;48.776;9.162;2023-06-01T05:01:21;17.90;78.60
292;DHT22;23311;48.776;9.162;2023-06-01T05:03:53;18.00;78.20
292;DHT22;23311;48.776;9.162;2023-06-01T05:06:23;17.90;78.00
292;DHT22;23311;48.776;9.162;2023-06-01T05:08:52;17.60;78.60
292;DHT22;23311;48.776;9.162;2023-06-01T05:11:20;17.30;79.60
292;DHT22;23311;48.776;9.162;2023-06-01T05:13:49;17.40;79.70
292;DHT22;23311;48.776;9.162;2023-06-01T05:16:18;17.60;79.30
292;DHT22;23311;48.776;9.162;2023-06-01T05:18:46;17.90;79.00
292;DHT22;23311;48.776;9.162;2023-06-01T05:21:17;18.20;78.20
292;DHT22;23311;48.776;9.162;2023-06-01T05:23:46;18.60;77.30
292;DHT22;23311;48.776;9.162;2023-06-01T05:26:14;19.00;76.40
292;DHT22;23311;48.776;9.162;2023-06-01T05:28:43;19.70;75.20
292;DHT22;23311;48.776;9.162;2023-06-01T05:31:11;20.50;73.70
292;DHT22;23311;48.776;9.162;2023-06-01T05:33:39;20.80;72.60
292;DHT22;23311;48.776;9.162;2023-06-01T05:36:08;21.20;71.80
292;DHT22;23311;48.776;9.162;2023-06-01T05:38:38;22.00;70.60
292;DHT22;23311;48.776;9.162;2023-06-01T05:41:06;22.40;69.60
292;DHT22;23311;48.776;9.162;2023-06-01T05:43:34;23.10;68.10
292;DHT22;23311;48.776;9.162;2023-06-01T05:46:03;23.60;67.10
292;DHT22;23311;48.776;9.162;2023-06-01T05:48:33;24.30;65.80
292;DHT22;23311;48.776;9.162;2023-06-01T05:51:05;24.60;65.00
292;DHT22;23311;48.776;9.162;2023-06-01T05:53:33;25.20;63.70
292;DHT22;23311;48.776;9.162;2023-06-01T05:56:02;25.10;63.40
292;DHT22;23311;48.776;9.162;2023-06-01T05:58:30;24.10;64.20
292;DHT22;23311;48.776;9.162;2023-06-01T06:00:58;23.80;65.70
292;DHT22;23311;48.776;9.162;2023-06-01T06:03:28;24.20;65.60
292;DHT22;23311;48.776;9.162;2023-06-01T06:05:56;25.00;64.10
292;DHT22;23311;48.776;9.162;2023-06-01T06:08:24;24.70;63.50
292;DHT22;23311;48.776;9.162;2023-06-01T06:10:53;25.20;63.60
292;DHT22;23311;48.776;9.162;2023-06-01T06:13:22;24.70;64.20
292;DHT22;23311;48.776;9.162;2023-06-01T06:15:50;25.70;62.90
292;DHT22;23311;48.776;9.162;2023-06-01T06:18:19;26.10;61.40
292;DHT22;23311;48.776;9.162;2023-06-01T06:20:47;25.70;62.10
292;DHT22;23311;48.776;9.162;2023-06-01T06:23:15;26.80;60.90
292;DHT22;23311;48.776;9.162;2023-06-01T06:25:45;26.30;61.60
292;DHT22;23311;48.776;9.162;2023-06-01T06:28:15;26.10;61.70
292;DHT22;23311;48.776;9.162;2023-06-01T06:30:44;26.20;61.70
292;DHT22;23311;48.776;9.162;2023-06-01T06:33:13;26.70;60.70
292;DHT22;23311;48.776;9.162;2023-06-01T06:35:42;26.60;61.20
292;DHT22;23311;48.776;9.162;2023-06-01T06:38:11;27.30;59.80
292;DHT22;23311;48.776;9.162;2023-06-01T06:40:39;27.60;59.40
292;DHT22;23311;48.776;9.162;2023-06-01T06:43:08;28.20;58.80
292;DHT22;23311;48.776;9.162;2023-06-01T06:45:36;28.30;57.80
292;DHT22;23311;48.776;9.162;2023-06-01T06:48:05;28.30;57.90
292;DHT22;23311;48.776;9.162;2023-06-01T06:50:33;27.20;59.50
292;DHT22;23311;48.776;9.162;2023-06-01T06:53:03;27.80;59.30
292;DHT22;23311;48.776;9.162;2023-06-01T06:55:32;27.90;58.80
292;DHT22;23311;48.776;9.162;2023-06-01T06:58:00;28.50;57.40
292;DHT22;23311;48.776;9.162;2023-06-01T07:00:28;28.20;57.60
292;DHT22;23311;48.776;9.162;2023-06-01T07:02:57;28.40;57.10
292;DHT22;23311;48.776;9.162;2023-06-01T07:05:27;27.90;57.30
292;DHT22;23311;48.776;9.162;2023-06-01T07:07:55;27.50;58.50
292;DHT22;23311;48.776;9.162;2023-06-01T07:10:24;28.00;57.80
292;DHT22;23311;48.776;9.162;2023-06-01T07:12:52;28.30;57.80
292;DHT22;23311;48.776;9.162;2023-06-01T07:15:20;27.80;58.50
292;DHT22;23311;48.776;9.162;2023-06-01T07:17:49;26.90;60.00
292;DHT22;23311;48.776;9.162;2023-06-01T07:20:17;26.30;60.40
292;DHT22;23311;48.776;9.162;2023-06-01T07:22:47;27.60;59.60
292;DHT22;23311;48.776;9.162;2023-06-01T07:25:16;28.60;57.90
292;DHT22;23311;48.776;9.162;2023-06-01T07:27:45;29.60;56.30
292;DHT22;23311;48.776;9.162;2023-06-01T07:30:15;30.00;55.70
292;DHT22;23311;48.776;9.162;2023-06-01T07:32:43;29.80;56.40
292;DHT22;23311;48.776;9.162;2023-06-01T07:35:11;30.40;55.60
292;DHT22;23311;48.776;9.162;2023-06-01T07:37:39;30.30;55.70
292;DHT22;23311;48.776;9.162;2023-06-01T07:40:10;30.80;54.50
292;DHT22;23311;48.776;9.162;2023-06-01T07:42:39;29.50;56.00
292;DHT22;23311;48.776;9.162;2023-06-01T07:45:08;28.80;57.10
292;DHT22;23311;48.776;9.162;2023-06-01T07:47:37;30.10;55.70
292;DHT22;23311;48.776;9.162;2023-06-01T07:50:07;30.30;55.00
292;DHT22;23311;48.776;9.162;2023-06-01T07:52:36;30.00;55.00
292;DHT22;23311;48.776;9.162;2023-06-01T07:55:05;30.50;54.70
292;DHT22;23311;48.776;9.162;2023-06-01T07:57:37;30.00;55.30
292;DHT22;23311;48.776;9.162;2023-06-01T08:00:08;30.60;54.60
292;DHT22;23311;48.776;9.162;2023-06-01T08:02:39;31.10;53.80
292;DHT22;23311;48.776;9.162;2023-06-01T08:05:09;30.10;54.70
292;DHT22;23311;48.776;9.162;2023-06-01T08:07:38;28.70;56.30
292;DHT22;23311;48.776;9.162;2023-06-01T08:10:07;29.40;56.60
292;DHT22;23311;48.776;9.162;2023-06-01T08:12:35;30.40;55.30
292;DHT22;23311;48.776;9.162;2023-06-01T08:15:05;31.30;54.00
292;DHT22;23311;48.776;9.162;2023-06-01T08:17:34;32.40;52.60
292;DHT22;23311;48.776;9.162;2023-06-01T08:20:02;32.30;51.90
292;DHT22;23311;48.776;9.162;2023-06-01T08:22:35;32.10;52.20
292;DHT22;23311;48.776;9.162;2023-06-01T08:25:04;31.60;53.10
292;DHT22;23311;48.776;9.162;2023-06-01T08:27:32;31.70;53.20
292;DHT22;23311;48.776;9.162;2023-06-01T08:30:00;30.90;54.10
292;DHT22;23311;48.776;9.162;2023-06-01T08:32:30;29.70;55.50
292;DHT22;23311;48.776;9.162;2023-06-01T08:34:58;30.40;55.20
292;DHT22;23311;48.776;9.162;2023-06-01T08:37:26;31.10;54.20
292;DHT22;23311;48.776;9.162;2023-06-01T08:39:55;30.60;54.90
292;DHT22;23311;48.776;9.162;2023-06-01T08:42:28;31.50;53.60
292;DHT22;23311;48.776;9.162;2023-06-01T08:44:58;32.20;52.60
292;DHT22;23311;48.776;9.162;2023-06-01T08:47:26;32.60;51.80
292;DHT22;23311;48.776;9.162;2023-06-01T08:49:58;32.90;51.60
292;DHT22;23311;48.776;9.162;2023-06-01T08:52:28;32.40;52.00
292;DHT22;23311;48.776;9.162;2023-06-01T08:54:58;32.10;52.30
292;DHT22;23311;48.776;9.162;2023-06-01T08:57:27;32.00;52.40
292;DHT22;23311;48.776;9.162;2023-06-01T08:59:56;32.50;51.60
292;DHT22;23311;48.776;9.162;2023-06-01T09:02:25;32.00;51.80
292;DHT22;23311;48.776;9.162;2023-06-01T09:04:55;31.50;52.80
292;DHT22;23311;48.776;9.162;2023-06-01T09:07:24;31.50;53.50
292;DHT22;23311;48.776;9.162;2023-06-01T09:09:54;32.60;51.70
292;DHT22;23311;48.776;9.162;2023-06-01T09:12:28;32.10;52.00
292;DHT22;23311;48.776;9.162;2023-06-01T09:15:08;32.30;52.00
292;DHT22;23311;48.776;9.162;2023-06-01T09:17:37;32.20;52.20
292;DHT22;23311;48.776;9.162;2023-06-01T09:20:13;32.80;51.10
292;DHT22;23311;48.776;9.162;2023-06-01T09:22:42;32.40;51.40
292;DHT22;23311;48.776;9.162;2023-06-01T09:25:11;32.50;51.50
292;DHT22;23311;48.776;9.162;2023-06-01T09:27:45;32.60;51.30
292;DHT22;23311;48.776;9.162;2023-06-01T09:30:14;33.10;51.00
292;DHT22;23311;48.776;9.162;2023-06-01T09:32:43;33.40;50.40
292;DHT22;23311;48.776;9.162;2023-06-01T09:35:16;32.50;51.40
292;DHT22;23311;48.776;9.162;2023-06-01T09:37:54;32.10;52.10
292;DHT22;23311;48.776;9.162;2023-06-01T09:40:23;32.10;52.20
292;DHT22;23311;48.776;9.162;2023-06-01T09:42:51;33.40;51.00
292;DHT22;23311;48.776;9.162;2023-06-01T09:45:21;33.50;50.80
292;DHT22;23311;48.776;9.162;2023-06-01T09:47:51;33.70;50.90
292;DHT22;23311;48.776;9.162;2023-06-01T09:50:34;34.80;49.60
292;DHT22;23311;48.776;9.162;2023-06-01T09:53:03;33.70;50.30
292;DHT22;23311;48.776;9.162;2023-06-01T09:55:31;32.30;51.90
292;DHT22;23311;48.776;9.162;2023-06-01T09:58:19;31.20;53.60
292;DHT22;23311;48.776;9.162;2023-06-01T10:00:49;32.30;52.50
292;DHT22;23311;48.776;9.162;2023-06-01T10:03:20;32.80;51.70
292;DHT22;23311;48.776;9.162;2023-06-01T10:05:50;32.70;51.90
292;DHT22;23311;48.776;9.162;2023-06-01T10:08:18;33.90;50.70
292;DHT22;23311;48.776;9.162;2023-06-01T10:10:48;33.90;50.70
292;DHT22;23311;48.776;9.162;2023-06-01T10:13:17;33.80;50.50
292;DHT22;23311;48.776;9.162;2023-06-01T10:15:49;33.20;51.20
292;DHT22;23311;48.776;9.162;2023-06-01T10:18:21;32.70;51.90
292;DHT22;23311;48.776;9.162;2023-06-01T10:20:51;32.90;51.50
292;DHT22;23311;48.776;9.162;2023-06-01T10:23:19;33.80;50.60
292;DHT22;23311;48.776;9.162;2023-06-01T10:25:57;34.10;50.00
292;DHT22;23311;48.776;9.162;2023-06-01T10:28:30;34.70;49.30
292;DHT22;23311;48.776;9.162;2023-06-01T10:31:33;34.50;49.10
292;DHT22;23311;48.776;9.162;2023-06-01T10:34:03;34.50;48.90
292;DHT22;23311;48.776;9.162;2023-06-01T10:37:11;34.20;48.20
292;DHT22;23311;48.776;9.162;2023-06-01T10:39:39;32.60;50.20
292;DHT22;23311;48.776;9.162;2023-06-01T10:42:39;32.80;50.80
292;DHT22;23311;48.776;9.162;2023-06-01T10:45:35;33.40;49.20
292;DHT22;23311;48.776;9.162;2023-06-01T10:48:05;33.10;48.30
292;DHT22;23311;48.776;9.162;2023-06-01T10:50:34;32.60;49.20
292;DHT22;23311;48.776;9.162;2023-06-01T10:53:26;33.30;48.30
292;DHT22;23311;48.776;9.162;2023-06-01T10:56:19;33.20;47.90
292;DHT22;23311;48.776;9.162;2023-06-01T10:59:10;33.50;48.50
292;DHT22;23311;48.776;9.162;2023-06-01T11:01:42;33.50;48.80
292;DHT22;23311;48.776;9.162;2023-06-01T11:04:11;32.80;49.30
292;DHT22;23311;48.776;9.162;2023-06-01T11:06:40;33.30;49.50
292;DHT22;23311;48.776;9.162;2023-06-01T11:09:12;33.10;49.40
292;DHT22;23311;48.776;9.162;2023-06-01T11:11:59;32.30;50.40
292;DHT22;23311;48.776;9.162;2023-06-01T11:14:29;32.30;49.80
292;DHT22;23311;48.776;9.162;2023-06-01T11:17:26;33.20;48.80
292;DHT22;23311;48.776;9.162;2023-06-01T11:20:00;33.10;47.80
292;DHT22;23311;48.776;9.162;2023-06-01T11:22:35;33.20;48.50
292;DHT22;23311;48.776;9.162;2023-06-01T11:25:06;32.90;48.70
292;DHT22;23311;48.776;9.162;2023-06-01T11:27:36;33.40;49.30
292;DHT22;23311;48.776;9.162;2023-06-01T11:30:05;33.30;48.90
292;DHT22;23311;48.776;9.162;2023-06-01T11:32:37;33.10;49.00
292;DHT22;23311;48.776;9.162;2023-06-01T11:35:18;33.80;47.90
292;DHT22;23311;48.776;9.162;2023-06-01T11:37:55;33.90;48.10
292;DHT22;23311;48.776;9.162;2023-06-01T11:40:25;33.90;47.50
292;DHT22;23311;48.776;9.162;2023-06-01T11:43:00;33.90;48.20
292;DHT22;23311;48.776;9.162;2023-06-01T11:45:28;33.60;48.00
292;DHT22;23311;48.776;9.162;2023-06-01T11:47:57;32.30;50.00
292;DHT22;23311;48.776;9.162;2023-06-01T11:50:26;32.00;50.80
292;DHT22;23311;48.776;9.162;2023-06-01T11:52:56;31.90;50.90
292;DHT22;23311;48.776;9.162;2023-06-01T11:55:26;31.70;51.20
292;DHT22;23311;48.776;9.162;2023-06-01T11:57:54;32.40;50.20
292;DHT22;23311;48.776;9.162;2023-06-01T12:00:22;32.70;49.60
292;DHT22;23311;48.776;9.162;2023-06-01T12:03:05;32.60;49.90
292;DHT22;23311;48.776;9.162;2023-06-01T12:05:39;32.20;50.30
292;DHT22;23311;48.776;9.162;2023-06-01T12:08:13;31.50;49.40
292;DHT22;23311;48.776;9.162;2023-06-01T12:10:43;31.20;50.30
292;DHT22;23311;48.776;9.162;2023-06-01T12:13:12;31.40;49.40
292;DHT22;23311;48.776;9.162;2023-06-01T12:15:40;31.20;49.30
292;DHT22;23311;48.776;9.162;2023-06-01T12:18:08;31.00;50.40
292;DHT22;23311;48.776;9.162;2023-06-01T12:20:38;30.90;50.60
292;DHT22;23311;48.776;9.162;2023-06-01T12:23:15;30.30;51.00
292;DHT22;23311;48.776;9.162;2023-06-01T12:25:52;31.20;50.20
292;DHT22;23311;48.776;9.162;2023-06-01T12:28:21;31.70;49.00
292;DHT22;23311;48.776;9.162;2023-06-01T12:30:51;31.80;49.00
292;DHT22;23311;48.776;9.162;2023-06-01T12:33:36;32.30;48.00
292;DHT22;23311;48.776;9.162;2023-06-01T12:36:05;32.60;47.30
292;DHT22;23311;48.776;9.162;2023-06-01T12:38:37;32.70;47.50
292;DHT22;23311;48.776;9.162;2023-06-01T12:41:07;32.60;47.30
292;DHT22;23311;48.776;9.162;2023-06-01T12:43:36;32.20;47.80
292;DHT22;23311;48.776;9.162;2023-06-01T12:46:05;32.70;47.90
292;DHT22;23311;48.776;9.162;2023-06-01T12:48:35;33.10;47.50
292;DHT22;23311;48.776;9.162;2023-06-01T12:51:04;32.40;48.00
292;DHT22;23311;48.776;9.162;2023-06-01T12:53:35;31.70;49.30
292;DHT22;23311;48.776;9.162;2023-06-01T12:56:03;31.60;49.60
292;DHT22;23311;48.776;9.162;2023-06-01T12:58:33;32.10;49.80
292;DHT22;23311;48.776;9.162;2023-06-01T13:01:01;31.60;50.60
292;DHT22;23311;48.776;9.162;2023-06-01T13:03:29;31.50;51.20
292;DHT22;23311;48.776;9.162;2023-06-01T13:05:57;30.90;53.20
292;DHT22;23311;48.776;9.162;2023-06-01T13:08:26;31.00;53.90
292;DHT22;23311;48.776;9.162;2023-06-01T13:10:54;31.80;52.40
292;DHT22;23311;48.776;9.162;2023-06-01T13:13:22;32.20;52.20
292;DHT22;23311;48.776;9.162;2023-06-01T13:15:52;32.10;52.50
292;DHT22;23311;48.776;9.162;2023-06-01T13:18:21;32.00;52.10
292;DHT22;23311;48.776;9.162;2023-06-01T13:20:49;32.30;51.90
292;DHT22;23311;48.776;9.162;2023-06-01T13:23:17;32.40;52.00
292;DHT22;23311;48.776;9.162;2023-06-01T13:25:46;32.30;52.00
292;DHT22;23311;48.776;9.162;2023-06-01T13:28:14;31.80;52.70
292;DHT22;23311;48.776;9.162;2023-06-01T13:30:42;31.90;52.50
292;DHT22;23311;48.776;9.162;2023-06-01T13:33:12;32.20;52.10
292;DHT22;23311;48.776;9.162;2023-06-01T13:35:40;32.90;51.50
292;DHT22;23311;48.776;9.162;2023-06-01T13:38:08;32.80;51.10
292;DHT22;23311;48.776;9.162;2023-06-01T13:40:36;32.10;51.70
292;DHT22;23311;48.776;9.162;2023-06-01T13:43:04;32.20;50.70
292;DHT22;23311;48.776;9.162;2023-06-01T13:45:33;32.70;50.40
292;DHT22;23311;48.776;9.162;2023-06-01T13:48:01;32.40;50.90
292;DHT22;23311;48.776;9.162;2023-06-01T13:50:31;32.00;50.90
292;DHT22;23311;48.776;9.162;2023-06-01T13:52:59;32.70;50.60
292;DHT22;23311;48.776;9.162;2023-06-01T13:55:31;33.00;50.30
292;DHT22;23311;48.776;9.162;2023-06-01T13:58:00;32.10;50.80
292;DHT22;23311;48.776;9.162;2023-06-01T14:00:28;32.10;51.20
292;DHT22;23311;48.776;9.162;2023-06-01T14:02:56;32.40;51.00
292;DHT22;23311;48.776;9.162;2023-06-01T14:05:25;32.40;50.40
292;DHT22;23311;48.776;9.162;2023-06-01T14:08:12;31.90;50.80
292;DHT22;23311;48.776;9.162;2023-06-01T14:10:40;31.40;51.10
292;DHT22;23311;48.776;9.162;2023-06-01T14:13:08;31.50;50.70
292;DHT22;23311;48.776;9.162;2023-06-01T14:15:37;32.30;49.80
292;DHT22;23311;48.776;9.162;2023-06-01T14:18:05;31.80;49.60
292;DHT22;23311;48.776;9.162;2023-06-01T14:20:33;31.20;50.30
292;DHT22;23311;48.776;9.162;2023-06-01T14:23:04;31.60;50.20
292;DHT22;23311;48.776;9.162;2023-06-01T14:25:36;32.20;49.30
292;DHT22;23311;48.776;9.162;2023-06-01T14:28:04;32.50;48.80
292;DHT22;23311;48.776;9.162;2023-06-01T14:30:32;31.90;49.40
292;DHT22;23311;48.776;9.162;2023-06-01T14:33:00;31.80;49.70
292;DHT22;23311;48.776;9.162;2023-06-01T14:35:28;32.40;48.90
292;DHT22;23311;48.776;9.162;2023-06-01T14:37:56;32.40;48.50
292;DHT22;23311;48.776;9.162;2023-06-01T14:40:24;32.10;48.60
292;DHT22;23311;48.776;9.162;2023-06-01T14:42:54;32.30;48.20
292;DHT22;23311;48.776;9.162;2023-06-01T14:45:22;32.40;47.80
292;DHT22;23311;48.776;9.162;2023-06-01T14:47:50;32.30;48.30
292;DHT22;23311;48.776;9.162;2023-06-01T14:50:18;32.40;48.00
292;DHT22;23311;48.776;9.162;2023-06-01T14:52:46;32.40;48.20
292;DHT22;23311;48.776;9.162;2023-06-01T14:55:14;32.70;48.10
292;DHT22;23311;48.776;9.162;2023-06-01T14:57:43;32.40;48.50
292;DHT22;23311;48.776;9.162;2023-06-01T15:00:14;31.90;49.10
292;DHT22;23311;48.776;9.162;2023-06-01T15:02:42;31.20;50.20
292;DHT22;23311;48.776;9.162;2023-06-01T15:05:12;31.50;50.00
292;DHT22;23311;48.776;9.162;2023-06-01T15:07:40;31.20;49.90
292;DHT22;23311;48.776;9.162;2023-06-01T15:10:08;31.20;50.20
292;DHT22;23311;48.776;9.162;2023-06-01T15:12:37;30.80;50.70
292;DHT22;23311;48.776;9.162;2023-06-01T15:15:06;30.70;51.20
292;DHT22;23311;48.776;9.162;2023-06-01T15:17:35;30.50;50.90
292;DHT22;23311;48.776;9.162;2023-06-01T15:20:04;31.10;50.60
292;DHT22;23311;48.776;9.162;2023-06-01T15:22:33;31.10;50.40
292;DHT22;23311;48.776;9.162;2023-06-01T15:25:04;31.00;50.90
292;DHT22;23311;48.776;9.162;2023-06-01T15:27:32;31.00;50.70
292;DHT22;23311;48.776;9.162;2023-06-01T15:30:00;31.20;50.50
292;DHT22;23311;48.776;9.162;2023-06-01T15:32:28;31.40;50.30
292;DHT22;23311;48.776;9.162;2023-06-01T15:34:57;31.80;49.90
292;DHT22;23311;48.776;9.162;2023-06-01T15:37:26;32.40;49.10
292;DHT22;23311;48.776;9.162;2023-06-01T15:39:54;32.30;49.20
292;DHT22;23311;48.776;9.162;2023-06-01T15:42:22;31.80;49.40
292;DHT22;23311;48.776;9.162;2023-06-01T15:44:50;31.10;50.20
292;DHT22;23311;48.776;9.162;2023-06-01T15:47:18;30.70;50.50
292;DHT22;23311;48.776;9.162;2023-06-01T15:49:46;31.10;50.20
292;DHT22;23311;48.776;9.162;2023-06-01T15:52:15;31.30;49.30
292;DHT22;23311;48.776;9.162;2023-06-01T15:54:43;30.90;49.90
292;DHT22;23311;48.776;9.162;2023-06-01T15:57:11;31.10;49.90
292;DHT22;23311;48.776;9.162;2023-06-01T15:59:39;31.50;49.50
292;DHT22;23311;48.776;9.162;2023-06-01T16:02:07;31.70;49.10
292;DHT22;23311;48.776;9.162;2023-06-01T16:04:36;31.40;49.30
292;DHT22;23311;48.776;9.162;2023-06-01T16:07:04;30.70;50.00
292;DHT22;23311;48.776;9.162;2023-06-01T16:09:34;31.00;49.70
292;DHT22;23311;48.776;9.162;2023-06-01T16:12:03;31.20;49.50
292;DHT22;23311;48.776;9.162;2023-06-01T16:14:31;31.00;49.60
292;DHT22;23311;48.776;9.162;2023-06-01T16:16:59;30.70;49.90
292;DHT22;23311;48.776;9.162;2023-06-01T16:19:28;30.70;50.00
292;DHT22;23311;48.776;9.162;2023-06-01T16:21:56;30.80;49.70